createdAt,value
2023-04-04T00:00:45.395Z,-0.80
2023-04-04T00:03:20.414Z,-0.80
2023-04-04T00:05:52.886Z,-0.80
2023-04-04T00:08:23.928Z,-0.80
2023-04-04T00:11:00.046Z,-0.90
2023-04-04T00:13:31.293Z,-0.90
2023-04-04T00:16:01.873Z,-0.90
2023-04-04T00:18:32.809Z,-0.90
2023-04-04T00:21:04.991Z,-1.00
2023-04-04T00:23:35.701Z,-0.90
2023-04-04T00:26:06.510Z,-1.00
2023-04-04T00:28:37.322Z,-0.90
2023-04-04T00:31:07.963Z,-0.90
2023-04-04T00:33:38.695Z,-1.00
2023-04-04T00:36:11.275Z,-1.00
2023-04-04T00:38:42.279Z,-1.00
2023-04-04T00:41:13.508Z,-1.00
2023-04-04T00:43:44.441Z,-1.00
2023-04-04T00:46:15.640Z,-1.00
2023-04-04T00:48:46.876Z,-1.00
2023-04-04T00:51:19.012Z,-1.00
2023-04-04T00:53:52.062Z,-0.90
2023-04-04T00:56:22.902Z,-0.90
2023-04-04T00:58:54.105Z,-0.90
2023-04-04T01:01:25.896Z,-0.80
2023-04-04T01:03:57.393Z,-0.90
2023-04-04T01:06:30.861Z,-0.90
2023-04-04T01:09:02.161Z,-0.90
2023-04-04T01:11:33.260Z,-0.90
2023-04-04T01:14:05.132Z,-0.90
2023-04-04T01:16:37.424Z,-0.90
2023-04-04T01:19:15.661Z,-1.00
2023-04-04T01:21:49.630Z,-1.00
2023-04-04T01:24:22.991Z,-1.00
2023-04-04T01:27:03.145Z,-1.10
2023-04-04T01:29:34.122Z,-1.20
2023-04-04T01:32:14.245Z,-1.20
2023-04-04T01:34:52.778Z,-1.20
2023-04-04T01:37:34.719Z,-1.20
2023-04-04T01:40:18.692Z,-1.20
2023-04-04T01:42:54.600Z,-1.20
2023-04-04T01:45:26.794Z,-1.30
2023-04-04T01:47:58.403Z,-1.30
2023-04-04T01:50:29.321Z,-1.40
2023-04-04T01:52:59.893Z,-1.30
2023-04-04T01:55:31.104Z,-1.30
2023-04-04T01:58:03.712Z,-1.30
2023-04-04T02:00:35.128Z,-1.30
2023-04-04T02:03:06.916Z,-1.40
2023-04-04T02:05:38.713Z,-1.50
2023-04-04T02:08:09.890Z,-1.40
2023-04-04T02:10:50.331Z,-1.50
2023-04-04T02:13:22.380Z,-1.50
2023-04-04T02:15:54.811Z,-1.50
2023-04-04T02:18:26.104Z,-1.50
2023-04-04T02:21:00.056Z,-1.50
2023-04-04T02:23:30.371Z,-1.40
2023-04-04T02:26:01.306Z,-1.30
2023-04-04T02:28:33.313Z,-1.40
2023-04-04T02:31:04.725Z,-1.40
2023-04-04T02:33:35.121Z,-1.50
2023-04-04T02:36:09.206Z,-1.50
2023-04-04T02:38:39.921Z,-1.40
2023-04-04T02:41:11.529Z,-1.40
2023-04-04T02:43:43.479Z,-1.50
2023-04-04T02:46:21.173Z,-1.50
2023-04-04T02:48:55.738Z,-1.60
2023-04-04T02:51:26.878Z,-1.60
2023-04-04T02:54:00.246Z,-1.70
2023-04-04T02:56:39.494Z,-1.80
2023-04-04T02:59:11.491Z,-1.90
2023-04-04T03:01:43.070Z,-1.90
2023-04-04T03:04:13.835Z,-2.10
2023-04-04T03:06:48.371Z,-2.10
2023-04-04T03:09:19.257Z,-2.10
2023-04-04T03:11:51.831Z,-2.10
2023-04-04T03:14:23.824Z,-2.10
2023-04-04T03:16:55.089Z,-2.00
2023-04-04T03:19:26.538Z,-2.10
2023-04-04T03:21:57.623Z,-2.10
2023-04-04T03:24:28.644Z,-2.10
2023-04-04T03:27:01.974Z,-2.00
2023-04-04T03:29:33.930Z,-2.00
2023-04-04T03:32:05.337Z,-2.00
2023-04-04T03:34:36.133Z,-2.00
2023-04-04T03:37:07.717Z,-2.00
2023-04-04T03:39:38.743Z,-2.00
2023-04-04T03:42:09.614Z,-2.10
2023-04-04T03:44:43.766Z,-2.00
2023-04-04T03:47:22.192Z,-2.10
2023-04-04T03:49:52.863Z,-2.20
2023-04-04T03:52:23.787Z,-2.20
2023-04-04T03:54:56.248Z,-2.20
2023-04-04T03:57:28.459Z,-2.20
2023-04-04T04:00:00.384Z,-2.10
2023-04-04T04:02:31.313Z,-2.10
2023-04-04T04:05:02.002Z,-2.10
2023-04-04T04:07:32.918Z,-2.10
2023-04-04T04:10:03.629Z,-2.10
2023-04-04T04:12:34.426Z,-2.00
2023-04-04T04:15:07.138Z,-2.00
2023-04-04T04:17:42.243Z,-2.00
2023-04-04T04:20:14.888Z,-2.00
2023-04-04T04:22:53.338Z,-2.00
2023-04-04T04:25:25.131Z,-2.00
2023-04-04T04:28:06.529Z,-2.00
2023-04-04T04:30:38.479Z,-2.10
2023-04-04T04:33:09.569Z,-2.00
2023-04-04T04:35:49.041Z,-2.00
2023-04-04T04:38:20.188Z,-2.00
2023-04-04T04:40:50.986Z,-2.00
2023-04-04T04:43:29.525Z,-2.00
2023-04-04T04:46:01.467Z,-2.00
2023-04-04T04:48:33.122Z,-1.90
2023-04-04T04:51:05.973Z,-1.90
2023-04-04T04:53:45.641Z,-2.00
2023-04-04T04:56:16.770Z,-2.00
2023-04-04T04:58:51.262Z,-1.90
2023-04-04T05:01:29.708Z,-1.80
2023-04-04T05:04:02.302Z,-1.80
2023-04-04T05:06:41.651Z,-1.80
2023-04-04T05:09:15.142Z,-1.80
2023-04-04T05:11:45.710Z,-1.80
2023-04-04T05:14:16.830Z,-1.80
2023-04-04T05:16:55.563Z,-1.70
2023-04-04T05:19:31.215Z,-1.70
2023-04-04T05:22:03.310Z,-1.70
2023-04-04T05:24:44.920Z,-1.70
2023-04-04T05:27:18.894Z,-1.50
2023-04-04T05:29:56.761Z,-1.50
2023-04-04T05:32:32.813Z,-1.50
2023-04-04T05:35:11.624Z,-1.30
2023-04-04T05:37:42.751Z,-1.40
2023-04-04T05:40:18.418Z,-1.20
2023-04-04T05:42:58.063Z,-1.30
2023-04-04T05:45:34.671Z,-1.20
2023-04-04T05:48:06.731Z,-1.00
2023-04-04T05:50:47.359Z,-1.00
2023-04-04T05:53:19.016Z,-0.90
2023-04-04T05:55:54.326Z,-1.00
2023-04-04T05:58:31.568Z,-1.00
2023-04-04T06:01:07.541Z,-0.90
2023-04-04T06:03:39.638Z,-0.90
2023-04-04T06:06:16.009Z,-0.90
2023-04-04T06:08:53.469Z,-0.90
2023-04-04T06:11:26.436Z,-0.70
2023-04-04T06:14:05.759Z,-0.50
2023-04-04T06:16:36.991Z,-0.50
2023-04-04T06:19:09.215Z,-0.60
2023-04-04T06:21:40.533Z,-0.60
2023-04-04T06:24:11.806Z,-0.60
2023-04-04T06:26:43.988Z,-0.50
2023-04-04T06:29:15.170Z,-0.30
2023-04-04T06:31:47.010Z,-0.40
2023-04-04T06:34:26.414Z,-0.60
2023-04-04T06:37:03.698Z,-0.70
2023-04-04T06:39:40.717Z,-0.70
2023-04-04T06:42:17.541Z,-0.60
2023-04-04T06:44:51.813Z,-0.60
2023-04-04T06:47:23.500Z,-0.60
2023-04-04T06:49:55.689Z,-0.40
2023-04-04T06:52:27.729Z,-0.30
2023-04-04T06:54:58.079Z,-0.40
2023-04-04T06:57:28.875Z,-0.40
2023-04-04T06:59:59.057Z,-0.50
2023-04-04T07:02:29.968Z,-0.10
2023-04-04T07:05:01.839Z,0.00
2023-04-04T07:07:32.573Z,-0.20
2023-04-04T07:10:02.897Z,-0.30
2023-04-04T07:12:33.718Z,-0.30
2023-04-04T07:15:04.077Z,-0.40
2023-04-04T07:17:38.144Z,-0.40
2023-04-04T07:20:11.524Z,-0.40
2023-04-04T07:22:44.481Z,-0.30
2023-04-04T07:25:14.637Z,0.50
2023-04-04T07:27:45.199Z,0.20
2023-04-04T07:30:16.910Z,0.20
2023-04-04T07:32:47.824Z,0.50
2023-04-04T07:35:19.842Z,0.00
2023-04-04T07:37:50.776Z,0.00
2023-04-04T07:40:21.694Z,0.00
2023-04-04T07:42:54.551Z,0.20
2023-04-04T07:45:24.803Z,0.10
2023-04-04T07:47:55.985Z,0.00
2023-04-04T07:50:27.918Z,0.20
2023-04-04T07:52:58.855Z,0.10
2023-04-04T07:55:29.444Z,0.10
2023-04-04T07:58:00.147Z,0.20
2023-04-04T08:00:30.436Z,0.30
2023-04-04T08:03:01.769Z,0.20
2023-04-04T08:05:33.554Z,0.40
2023-04-04T08:08:04.136Z,0.70
2023-04-04T08:10:34.723Z,1.00
2023-04-04T08:13:06.015Z,0.60
2023-04-04T08:15:36.605Z,0.40
2023-04-04T08:18:07.651Z,0.30
2023-04-04T08:20:39.553Z,0.10
2023-04-04T08:23:10.881Z,0.20
2023-04-04T08:25:41.244Z,0.00
2023-04-04T08:28:11.789Z,0.20
2023-04-04T08:30:42.691Z,0.40
2023-04-04T08:33:13.478Z,0.80
2023-04-04T08:35:45.262Z,0.50
2023-04-04T08:38:16.062Z,0.80
2023-04-04T08:40:48.837Z,1.30
2023-04-04T08:43:20.237Z,1.80
2023-04-04T08:45:54.360Z,1.90
2023-04-04T08:48:27.885Z,1.80
2023-04-04T08:51:00.733Z,0.60
2023-04-04T08:53:32.306Z,0.50
2023-04-04T08:56:02.844Z,1.00
2023-04-04T08:58:33.663Z,1.10
2023-04-04T09:01:04.207Z,1.10
2023-04-04T09:03:36.937Z,1.00
2023-04-04T09:06:09.890Z,0.60
2023-04-04T09:08:41.965Z,0.60
2023-04-04T09:11:13.409Z,0.40
2023-04-04T09:13:47.535Z,0.80
2023-04-04T09:16:18.490Z,1.30
2023-04-04T09:18:49.329Z,1.10
2023-04-04T09:21:21.741Z,0.70
2023-04-04T09:24:01.343Z,0.60
2023-04-04T09:26:48.713Z,0.80
2023-04-04T09:29:20.898Z,0.60
2023-04-04T09:31:52.117Z,0.80
2023-04-04T09:34:23.052Z,0.90
2023-04-04T09:36:55.773Z,0.80
2023-04-04T09:39:27.288Z,1.00
2023-04-04T09:41:59.252Z,0.60
2023-04-04T09:44:34.109Z,0.50
2023-04-04T09:50:00.612Z,1.00
2023-04-04T09:52:35.897Z,1.40
2023-04-04T09:55:08.085Z,0.90
2023-04-04T09:57:39.552Z,0.70
2023-04-04T10:00:15.642Z,1.10
2023-04-04T10:02:50.924Z,1.00
2023-04-04T10:05:22.653Z,1.30
2023-04-04T10:07:55.179Z,1.20
2023-04-04T10:10:28.609Z,1.80
2023-04-04T10:13:00.050Z,1.80
2023-04-04T10:15:38.518Z,1.70
2023-04-04T10:18:10.151Z,2.00
2023-04-04T10:20:41.495Z,2.10
2023-04-04T10:23:15.890Z,2.10
2023-04-04T10:25:46.839Z,1.70
2023-04-04T10:28:18.835Z,2.30
2023-04-04T10:31:05.823Z,2.90
2023-04-04T10:33:45.767Z,2.90
2023-04-04T10:36:22.710Z,2.00
2023-04-04T10:39:10.391Z,1.80
2023-04-04T10:41:42.708Z,1.70
2023-04-04T10:44:25.002Z,1.40
2023-04-04T10:46:58.949Z,1.70
2023-04-04T10:49:31.873Z,2.10
2023-04-04T10:52:03.652Z,2.10
2023-04-04T10:54:36.084Z,2.10
2023-04-04T10:57:07.319Z,2.30
2023-04-04T10:59:58.403Z,2.30
2023-04-04T11:02:55.762Z,2.50
2023-04-04T11:05:28.440Z,1.80
2023-04-04T11:08:08.260Z,1.90
2023-04-04T11:10:43.649Z,2.00
2023-04-04T11:13:18.434Z,1.70
2023-04-04T11:15:57.923Z,1.90
2023-04-04T11:18:49.969Z,1.80
2023-04-04T11:21:24.262Z,2.20
2023-04-04T11:24:17.623Z,2.40
2023-04-04T11:26:49.980Z,2.00
2023-04-04T11:29:54.186Z,1.60
2023-04-04T11:32:47.897Z,1.40
2023-04-04T11:35:24.210Z,1.50
2023-04-04T11:38:04.037Z,1.70
2023-04-04T11:40:43.040Z,1.80
2023-04-04T11:43:17.167Z,1.70
2023-04-04T11:45:48.960Z,1.80
2023-04-04T11:48:21.918Z,1.80
2023-04-04T11:50:54.399Z,2.40
2023-04-04T11:53:24.888Z,2.60
2023-04-04T11:55:56.755Z,2.30
2023-04-04T11:58:29.665Z,2.60
2023-04-04T12:01:00.447Z,2.50
2023-04-04T12:03:31.227Z,2.40
2023-04-04T12:06:03.387Z,2.60
2023-04-04T12:08:34.929Z,2.30
2023-04-04T12:11:10.845Z,1.80
2023-04-04T12:13:45.974Z,2.30
2023-04-04T12:16:20.357Z,2.00
2023-04-04T12:18:52.153Z,1.90
2023-04-04T12:21:23.086Z,1.80
2023-04-04T12:23:54.274Z,1.80
2023-04-04T12:26:29.773Z,1.90
2023-04-04T12:29:02.449Z,2.00
2023-04-04T12:31:34.136Z,1.80
2023-04-04T12:34:05.011Z,1.80
2023-04-04T12:36:39.500Z,2.10
2023-04-04T12:39:12.822Z,1.80
2023-04-04T12:41:54.727Z,2.00
2023-04-04T12:44:32.812Z,2.30
2023-04-04T12:47:06.027Z,2.50
2023-04-04T12:49:44.432Z,2.80
2023-04-04T12:52:22.534Z,3.10
2023-04-04T12:55:06.936Z,2.50
2023-04-04T12:57:41.162Z,2.80
2023-04-04T13:00:15.280Z,2.70
2023-04-04T13:02:51.115Z,2.40
2023-04-04T13:05:23.376Z,2.60
2023-04-04T13:08:07.891Z,2.90
2023-04-04T13:11:02.638Z,2.60
2023-04-04T13:13:38.828Z,2.10
2023-04-04T13:16:12.543Z,2.50
2023-04-04T13:18:45.286Z,2.60
2023-04-04T13:21:15.642Z,2.30
2023-04-04T13:23:46.398Z,2.20
2023-04-04T13:26:16.678Z,2.40
2023-04-04T13:28:47.451Z,2.40
2023-04-04T13:31:19.305Z,2.50
2023-04-04T13:33:50.164Z,2.20
2023-04-04T13:36:20.744Z,2.40
2023-04-04T13:38:51.654Z,2.40
2023-04-04T13:41:22.172Z,2.40
2023-04-04T13:43:54.005Z,2.50
2023-04-04T13:46:25.938Z,2.50
2023-04-04T13:48:56.774Z,2.70
2023-04-04T13:51:27.421Z,2.90
2023-04-04T13:53:58.448Z,3.00
2023-04-04T13:56:28.690Z,3.10
2023-04-04T13:58:59.524Z,2.70
2023-04-04T14:01:31.615Z,2.30
2023-04-04T14:04:10.177Z,2.90
2023-04-04T14:06:47.331Z,2.50
2023-04-04T14:09:20.054Z,2.30
2023-04-04T14:11:50.628Z,2.20
2023-04-04T14:14:21.439Z,2.30
2023-04-04T14:16:53.170Z,2.40
2023-04-04T14:19:23.880Z,2.30
2023-04-04T14:21:54.360Z,2.30
2023-04-04T14:24:25.027Z,2.40
2023-04-04T14:26:55.802Z,2.30
2023-04-04T14:29:26.697Z,2.30
2023-04-04T14:31:58.433Z,2.80
2023-04-04T14:34:29.297Z,2.50
2023-04-04T14:37:00.737Z,2.20
2023-04-04T14:39:31.524Z,2.30
2023-04-04T14:42:01.892Z,2.70
2023-04-04T14:44:33.539Z,2.50
2023-04-04T14:47:05.688Z,2.70
2023-04-04T14:49:36.702Z,3.30
2023-04-04T14:52:07.285Z,2.50
2023-04-04T14:54:37.883Z,2.90
2023-04-04T14:57:08.401Z,2.80
2023-04-04T14:59:39.023Z,3.80
2023-04-04T15:02:10.624Z,5.10
2023-04-04T15:04:42.696Z,5.40
2023-04-04T15:07:13.164Z,4.10
2023-04-04T15:09:43.866Z,4.50
2023-04-04T15:12:14.299Z,6.20
2023-04-04T15:14:45.101Z,5.40
2023-04-04T15:17:17.024Z,4.20
2023-04-04T15:19:48.563Z,5.30
2023-04-04T15:22:18.773Z,5.10
2023-04-04T15:24:49.388Z,4.90
2023-04-04T15:27:19.817Z,4.70
2023-04-04T15:29:50.689Z,3.50
2023-04-04T15:32:22.650Z,3.50
2023-04-04T15:34:55.516Z,4.90
2023-04-04T15:37:26.069Z,4.00
2023-04-04T15:39:57.089Z,4.20
2023-04-04T15:42:28.608Z,4.80
2023-04-04T15:44:59.324Z,2.90
2023-04-04T15:47:31.427Z,3.30
2023-04-04T15:50:02.397Z,3.30
2023-04-04T15:52:32.681Z,2.70
2023-04-04T15:55:03.737Z,2.60
2023-04-04T15:57:34.366Z,2.70
2023-04-04T16:00:06.625Z,2.60
2023-04-04T16:02:39.467Z,2.50
2023-04-04T16:05:11.197Z,2.60
2023-04-04T16:07:41.648Z,3.00
2023-04-04T16:10:12.961Z,2.80
2023-04-04T16:12:44.739Z,2.70
2023-04-04T16:15:15.360Z,2.60
2023-04-04T16:17:47.240Z,2.70
2023-04-04T16:20:18.111Z,2.70
2023-04-04T16:22:48.904Z,2.60
2023-04-04T16:25:20.191Z,2.90
2023-04-04T16:27:50.578Z,2.80
2023-04-04T16:30:21.552Z,2.70
2023-04-04T16:32:53.367Z,2.50
2023-04-04T16:35:24.717Z,2.30
2023-04-04T16:37:55.542Z,2.20
2023-04-04T16:40:26.084Z,2.20
2023-04-04T16:42:56.718Z,2.30
2023-04-04T16:45:28.163Z,2.30
2023-04-04T16:48:00.342Z,2.30
2023-04-04T16:50:31.086Z,2.20
2023-04-04T16:53:01.629Z,2.00
2023-04-04T16:55:32.451Z,2.00
2023-04-04T16:58:02.831Z,2.00
2023-04-04T17:00:33.999Z,1.90
2023-04-04T17:03:06.796Z,1.90
2023-04-04T17:05:37.819Z,1.80
2023-04-04T17:08:09.393Z,1.70
2023-04-04T17:10:41.692Z,1.60
2023-04-04T17:13:12.528Z,1.50
2023-04-04T17:15:43.552Z,1.50
2023-04-04T17:18:15.317Z,1.40
2023-04-04T17:20:47.899Z,1.30
2023-04-04T17:23:18.497Z,1.30
2023-04-04T17:25:49.408Z,1.20
2023-04-04T17:28:20.699Z,1.20
2023-04-04T17:30:52.240Z,1.20
2023-04-04T17:33:26.914Z,1.10
2023-04-04T17:35:57.601Z,1.10
2023-04-04T17:38:27.944Z,1.10
2023-04-04T17:41:04.153Z,1.00
2023-04-04T17:43:34.856Z,1.00
2023-04-04T17:46:07.074Z,1.00
2023-04-04T17:48:38.921Z,0.90
2023-04-04T17:51:10.001Z,0.90
2023-04-04T17:53:40.268Z,0.90
2023-04-04T17:56:11.329Z,0.90
2023-04-04T17:58:41.823Z,0.90
2023-04-04T18:01:12.535Z,0.90
2023-04-04T18:03:45.609Z,0.80
2023-04-04T18:06:17.000Z,0.80
2023-04-04T18:08:47.466Z,0.80
2023-04-04T18:11:18.351Z,0.70
2023-04-04T18:13:48.690Z,0.70
2023-04-04T18:16:19.624Z,0.70
2023-04-04T18:18:51.688Z,0.60
2023-04-04T18:21:22.478Z,0.50
2023-04-04T18:23:52.903Z,0.40
2023-04-04T18:26:23.918Z,0.40
2023-04-04T18:28:54.568Z,0.50
2023-04-04T18:31:25.162Z,0.40
2023-04-04T18:33:57.110Z,0.40
2023-04-04T18:36:28.205Z,0.30
2023-04-04T18:38:58.492Z,0.20
2023-04-04T18:41:29.281Z,0.30
2023-04-04T18:43:59.925Z,0.30
2023-04-04T18:46:30.885Z,0.30
2023-04-04T18:49:02.644Z,0.30
2023-04-04T18:51:33.546Z,0.20
2023-04-04T18:54:04.591Z,0.20
2023-04-04T18:56:37.833Z,0.10
2023-04-04T18:59:09.229Z,0.00
2023-04-04T19:01:40.601Z,-0.20
2023-04-04T19:04:15.648Z,-0.30
2023-04-04T19:06:48.510Z,-0.40
2023-04-04T19:09:20.610Z,-0.50
2023-04-04T19:11:55.178Z,-0.50
2023-04-04T19:14:25.477Z,-0.60
2023-04-04T19:16:56.684Z,-0.80
2023-04-04T19:19:29.542Z,-0.80
2023-04-04T19:22:01.051Z,-0.80
2023-04-04T19:24:32.481Z,-0.70
2023-04-04T19:27:04.409Z,-0.70
2023-04-04T19:29:37.495Z,-0.70
2023-04-04T19:32:15.292Z,-0.80
2023-04-04T19:34:48.602Z,-0.80
2023-04-04T19:37:20.162Z,-0.80
2023-04-04T19:39:51.564Z,-0.80
2023-04-04T19:42:30.823Z,-0.80
2023-04-04T19:45:02.257Z,-0.70
2023-04-04T19:47:32.766Z,-0.80
2023-04-04T19:50:08.419Z,-0.70
2023-04-04T19:52:39.348Z,-0.50
2023-04-04T19:55:11.173Z,-0.40
2023-04-04T19:57:42.006Z,-0.50
2023-04-04T20:00:16.650Z,-0.50
2023-04-04T20:02:57.146Z,-0.40
2023-04-04T20:06:08.518Z,-0.40
2023-04-04T20:08:44.384Z,-0.50
2023-04-04T20:11:17.280Z,-0.50
2023-04-04T20:13:48.582Z,-0.50
2023-04-04T20:16:19.349Z,-0.40
2023-04-04T20:18:50.210Z,-0.40
2023-04-04T20:21:23.672Z,-0.30
2023-04-04T20:23:57.751Z,-0.30
2023-04-04T20:26:52.506Z,-0.30
2023-04-04T20:29:26.916Z,-0.40
2023-04-04T20:32:00.031Z,-0.40
2023-04-04T20:34:45.457Z,-0.40
2023-04-04T20:37:20.354Z,-0.30
2023-04-04T20:39:54.884Z,-0.30
2023-04-04T20:42:40.397Z,-0.30
2023-04-04T20:45:45.105Z,-0.40
2023-04-04T20:48:38.977Z,-0.40
2023-04-04T20:51:29.566Z,-0.50
2023-04-04T20:54:03.881Z,-0.30
2023-04-04T20:56:55.215Z,-0.30
2023-04-04T20:59:38.477Z,-0.30
2023-04-04T21:02:15.505Z,-0.40
2023-04-04T21:04:49.630Z,-0.50
2023-04-04T21:07:43.774Z,-0.60
2023-04-04T21:10:25.624Z,-0.70
2023-04-04T21:12:59.632Z,-0.60
2023-04-04T21:15:33.850Z,-0.60
2023-04-04T21:18:09.654Z,-0.60
2023-04-04T21:21:12.397Z,-0.60
2023-04-04T21:23:57.145Z,-0.60
2023-04-04T21:26:36.617Z,-0.70
2023-04-04T21:29:08.676Z,-0.80
2023-04-04T21:31:43.262Z,-0.90
2023-04-04T21:34:16.416Z,-0.80
2023-04-04T21:36:47.800Z,-0.80
2023-04-04T21:39:24.658Z,-0.70
2023-04-04T21:41:59.556Z,-0.70
2023-04-04T21:44:31.908Z,-0.70
2023-04-04T21:47:02.134Z,-0.60
2023-04-04T21:49:32.942Z,-0.70
2023-04-04T21:52:03.277Z,-0.70
2023-04-04T21:54:33.794Z,-0.70
2023-04-04T21:57:05.791Z,-0.80
2023-04-04T21:59:37.037Z,-0.80
2023-04-04T22:02:08.176Z,-0.90
2023-04-04T22:04:39.386Z,-1.00
2023-04-04T22:07:10.597Z,-1.00
2023-04-04T22:09:43.191Z,-1.00
2023-04-04T22:12:16.012Z,-1.00
2023-04-04T22:14:50.717Z,-1.00
2023-04-04T22:17:23.981Z,-1.00
2023-04-04T22:20:00.039Z,-1.00
2023-04-04T22:22:31.167Z,-1.10
2023-04-04T22:25:05.931Z,-1.10
2023-04-04T22:27:38.327Z,-1.30
2023-04-04T22:30:10.642Z,-1.30
2023-04-04T22:32:43.968Z,-1.40
2023-04-04T22:35:14.972Z,-1.50
2023-04-04T22:37:46.198Z,-1.50
2023-04-04T22:40:17.466Z,-1.50
2023-04-04T22:42:49.244Z,-1.40
2023-04-04T22:45:20.884Z,-1.40
2023-04-04T22:47:51.599Z,-1.40
2023-04-04T22:50:24.195Z,-1.40
2023-04-04T22:52:54.952Z,-1.50
2023-04-04T22:55:27.814Z,-1.50
2023-04-04T22:57:59.842Z,-1.60
2023-04-04T23:00:30.652Z,-1.70
2023-04-04T23:03:02.386Z,-1.80
2023-04-04T23:05:33.333Z,-1.80
2023-04-04T23:08:04.615Z,-1.80
2023-04-04T23:10:35.442Z,-1.70
2023-04-04T23:13:07.219Z,-1.70
2023-04-04T23:15:38.004Z,-1.70
2023-04-04T23:18:09.303Z,-1.70
2023-04-04T23:20:40.241Z,-1.70
2023-04-04T23:23:10.926Z,-1.80
2023-04-04T23:25:41.621Z,-1.90
2023-04-04T23:28:13.525Z,-1.90
2023-04-04T23:30:44.079Z,-2.00
2023-04-04T23:33:16.740Z,-2.00
2023-04-04T23:35:48.152Z,-1.90
2023-04-04T23:38:19.285Z,-2.10
2023-04-04T23:40:49.826Z,-2.10
2023-04-04T23:43:21.566Z,-2.10
2023-04-04T23:45:52.453Z,-2.00
2023-04-04T23:48:22.622Z,-2.00
2023-04-04T23:50:54.632Z,-2.10
2023-04-04T23:53:26.008Z,-2.10
2023-04-04T23:55:56.721Z,-2.20
2023-04-04T23:58:28.658Z,-2.20
